createdAt,value
2023-10-08T00:01:23.121Z,96188.97
2023-10-08T00:03:52.881Z,96202.13
2023-10-08T00:06:23.156Z,96209.34
2023-10-08T00:08:52.173Z,96205.19
2023-10-08T00:11:20.390Z,96199.22
2023-10-08T00:13:50.313Z,96205.19
2023-10-08T00:16:19.265Z,96195.88
2023-10-08T00:18:52.821Z,96211.25
2023-10-08T00:21:29.528Z,96199.34
2023-10-08T00:24:01.467Z,96212.19
2023-10-08T00:26:33.406Z,96213.13
2023-10-08T00:29:17.681Z,96218.25
2023-10-08T00:31:47.112Z,96219.47
2023-10-08T00:34:15.314Z,96223.91
2023-10-08T00:36:45.627Z,96211.03
2023-10-08T00:39:24.332Z,96174.50
2023-10-08T00:42:01.122Z,96215.53
2023-10-08T00:44:34.433Z,96221.56
2023-10-08T00:47:03.150Z,96223.25
2023-10-08T00:49:34.094Z,96192.81
2023-10-08T00:52:01.696Z,96221.13
2023-10-08T00:54:29.871Z,96216.78
2023-10-08T00:57:00.655Z,96193.25
2023-10-08T00:59:31.256Z,96210.53
2023-10-08T01:02:07.560Z,96218.16
2023-10-08T01:04:36.001Z,96197.56
2023-10-08T01:07:13.705Z,96206.47
2023-10-08T01:09:44.748Z,96212.44
2023-10-08T01:12:27.732Z,96200.84
2023-10-08T01:14:57.577Z,96211.28
2023-10-08T01:17:27.024Z,96219.50
2023-10-08T01:20:01.717Z,96224.00
2023-10-08T01:22:40.178Z,96220.03
2023-10-08T01:25:11.955Z,96222.50
2023-10-08T01:27:40.170Z,96195.34
2023-10-08T01:30:19.519Z,96218.03
2023-10-08T01:32:46.976Z,96215.88
2023-10-08T01:35:24.809Z,96219.19
2023-10-08T01:37:52.654Z,96217.22
2023-10-08T01:40:20.252Z,96197.44
2023-10-08T01:42:47.751Z,96217.03
2023-10-08T01:45:17.490Z,96207.00
2023-10-08T01:47:51.856Z,96202.97
2023-10-08T01:50:23.002Z,96169.88
2023-10-08T01:52:52.870Z,96209.25
2023-10-08T01:55:21.022Z,96220.53
2023-10-08T01:57:49.652Z,96163.59
2023-10-08T02:00:24.126Z,96127.53
2023-10-08T02:02:52.355Z,96117.63
2023-10-08T02:05:22.839Z,96199.31
2023-10-08T02:07:50.700Z,96218.66
2023-10-08T02:10:18.359Z,96209.25
2023-10-08T02:12:46.768Z,96156.31
2023-10-08T02:15:14.144Z,96212.50
2023-10-08T02:17:41.756Z,96207.50
2023-10-08T02:20:10.404Z,96202.38
2023-10-08T02:22:57.931Z,96207.16
2023-10-08T02:25:25.366Z,96204.41
2023-10-08T02:27:53.338Z,96206.66
2023-10-08T02:30:21.318Z,96219.06
2023-10-08T02:32:48.888Z,96202.97
2023-10-08T02:35:18.191Z,96206.00
2023-10-08T02:37:47.167Z,96188.31
2023-10-08T02:40:17.886Z,96212.13
2023-10-08T02:42:45.813Z,96184.56
2023-10-08T02:45:15.144Z,96162.97
2023-10-08T02:47:46.002Z,96217.38
2023-10-08T02:50:17.911Z,96228.81
2023-10-08T02:52:48.360Z,96172.41
2023-10-08T02:55:39.158Z,96212.03
2023-10-08T02:58:07.630Z,96231.28
2023-10-08T03:00:35.643Z,96224.00
2023-10-08T03:03:11.236Z,96214.97
2023-10-08T03:05:39.044Z,96120.38
2023-10-08T03:08:12.285Z,96211.44
2023-10-08T03:10:41.624Z,96215.97
2023-10-08T03:13:14.328Z,96221.44
2023-10-08T03:15:59.532Z,96205.38
2023-10-08T03:18:27.725Z,96149.28
2023-10-08T03:20:55.257Z,96208.72
2023-10-08T03:23:34.442Z,96109.81
2023-10-08T03:26:13.053Z,96218.13
2023-10-08T03:28:43.057Z,96215.63
2023-10-08T03:31:19.034Z,96211.22
2023-10-08T03:33:53.592Z,96213.13
2023-10-08T03:36:35.649Z,96232.06
2023-10-08T03:39:13.017Z,96218.72
2023-10-08T03:41:52.783Z,96218.72
2023-10-08T03:44:22.090Z,96217.06
2023-10-08T03:46:49.644Z,96214.69
2023-10-08T03:49:26.559Z,96221.94
2023-10-08T03:51:54.475Z,96215.03
2023-10-08T03:54:35.120Z,96213.84
2023-10-08T03:57:06.060Z,96226.47
2023-10-08T03:59:35.433Z,96223.84
2023-10-08T04:02:17.316Z,96211.56
2023-10-08T04:04:57.869Z,96212.06
2023-10-08T04:07:31.547Z,96216.69
2023-10-08T04:10:12.025Z,96223.25
2023-10-08T04:12:45.756Z,96223.94
2023-10-08T04:15:18.418Z,96152.16
2023-10-08T04:17:46.441Z,96203.34
2023-10-08T04:20:35.194Z,96203.81
2023-10-08T04:23:05.983Z,96208.91
2023-10-08T04:25:34.135Z,96211.91
2023-10-08T04:28:02.901Z,96153.78
2023-10-08T04:30:37.838Z,96203.88
2023-10-08T04:33:12.445Z,96219.13
2023-10-08T04:35:57.740Z,96213.41
2023-10-08T04:38:30.430Z,96180.66
2023-10-08T04:41:03.492Z,96206.06
2023-10-08T04:43:32.233Z,96219.41
2023-10-08T04:46:00.676Z,96149.53
2023-10-08T04:48:33.306Z,96209.25
2023-10-08T04:51:01.409Z,96209.97
2023-10-08T04:53:37.994Z,96214.81
2023-10-08T04:56:14.829Z,96181.56
2023-10-08T04:58:42.844Z,96220.84
2023-10-08T05:01:19.842Z,96211.97
2023-10-08T05:04:08.713Z,96221.84
2023-10-08T05:06:36.921Z,96230.16
2023-10-08T05:09:51.547Z,96173.72
2023-10-08T05:12:39.279Z,96228.66
2023-10-08T05:15:16.525Z,96231.38
2023-10-08T05:17:53.243Z,96139.19
2023-10-08T05:20:41.118Z,96168.66
2023-10-08T05:23:34.143Z,96224.75
2023-10-08T05:26:10.700Z,96208.94
2023-10-08T05:28:49.098Z,96233.59
2023-10-08T05:31:16.693Z,96201.06
2023-10-08T05:34:02.925Z,96239.59
2023-10-08T05:36:51.313Z,96243.09
2023-10-08T05:39:37.309Z,96239.22
2023-10-08T05:42:32.991Z,96243.31
2023-10-08T05:45:09.491Z,96152.34
2023-10-08T05:47:37.188Z,96234.59
2023-10-08T05:50:17.740Z,96226.91
2023-10-08T05:52:59.151Z,96140.00
2023-10-08T05:55:27.944Z,96251.41
2023-10-08T05:58:36.481Z,96259.53
2023-10-08T06:01:09.228Z,96191.47
2023-10-08T06:03:38.836Z,96254.34
2023-10-08T06:06:17.877Z,96261.97
2023-10-08T06:09:06.175Z,96256.72
2023-10-08T06:11:42.796Z,96250.91
2023-10-08T06:14:29.856Z,96240.69
2023-10-08T06:17:23.885Z,96258.72
2023-10-08T06:19:54.018Z,96261.81
2023-10-08T06:22:27.844Z,96279.53
2023-10-08T06:25:15.132Z,96270.13
2023-10-08T06:27:42.763Z,96265.94
2023-10-08T06:30:18.382Z,96254.69
2023-10-08T06:32:46.655Z,96258.84
2023-10-08T06:35:18.759Z,96274.28
2023-10-08T06:37:50.677Z,96165.75
2023-10-08T06:40:36.481Z,96254.94
2023-10-08T06:43:15.984Z,96210.16
2023-10-08T06:45:45.702Z,96261.19
2023-10-08T06:48:20.073Z,96271.91
2023-10-08T06:50:49.178Z,96277.31
2023-10-08T06:53:19.701Z,96226.81
2023-10-08T06:55:49.620Z,96258.97
2023-10-08T06:58:19.149Z,96279.94
2023-10-08T07:00:50.364Z,96273.53
2023-10-08T07:03:19.447Z,96286.19
2023-10-08T07:05:59.658Z,96281.72
2023-10-08T07:08:33.406Z,96236.91
2023-10-08T07:11:08.116Z,96255.91
2023-10-08T07:13:37.441Z,96292.25
2023-10-08T07:16:05.895Z,96302.91
2023-10-08T07:18:35.438Z,96271.97
2023-10-08T07:21:13.257Z,96288.38
2023-10-08T07:24:01.449Z,96294.34
2023-10-08T07:26:41.250Z,96296.16
2023-10-08T07:29:12.815Z,96306.00
2023-10-08T07:31:44.304Z,96287.41
2023-10-08T07:34:19.646Z,96289.91
2023-10-08T07:36:48.857Z,96256.63
2023-10-08T07:39:26.110Z,96308.91
2023-10-08T07:41:58.206Z,96303.38
2023-10-08T07:44:32.816Z,96292.97
2023-10-08T07:47:01.849Z,96299.63
2023-10-08T07:49:32.516Z,96310.19
2023-10-08T07:52:02.807Z,96296.97
2023-10-08T07:54:30.182Z,96291.28
2023-10-08T07:57:10.675Z,96325.53
2023-10-08T07:59:43.291Z,96311.69
2023-10-08T08:02:14.591Z,96278.81
2023-10-08T08:04:52.212Z,96315.03
2023-10-08T08:07:23.415Z,96300.97
2023-10-08T08:09:53.581Z,96333.59
2023-10-08T08:12:26.597Z,96318.47
2023-10-08T08:14:54.108Z,96275.84
2023-10-08T08:17:25.000Z,96324.13
2023-10-08T08:19:54.219Z,96334.56
2023-10-08T08:22:24.115Z,96315.13
2023-10-08T08:25:17.241Z,96335.66
2023-10-08T08:27:50.754Z,96336.25
2023-10-08T08:30:19.577Z,96333.91
2023-10-08T08:32:53.836Z,96329.69
2023-10-08T08:35:21.939Z,96337.16
2023-10-08T08:37:51.251Z,96302.63
2023-10-08T08:40:26.234Z,96332.69
2023-10-08T08:42:54.126Z,96338.25
2023-10-08T08:45:29.277Z,96336.41
2023-10-08T08:47:57.444Z,96326.25
2023-10-08T08:50:25.067Z,96347.72
2023-10-08T08:52:53.361Z,96357.94
2023-10-08T08:55:22.193Z,96348.81
2023-10-08T08:57:52.519Z,96358.56
2023-10-08T09:00:21.580Z,96342.28
2023-10-08T09:02:51.124Z,96348.34
2023-10-08T09:05:25.121Z,96350.97
2023-10-08T09:08:05.566Z,96355.75
2023-10-08T09:10:39.296Z,96355.50
2023-10-08T09:13:12.508Z,96362.03
2023-10-08T09:15:40.204Z,96269.47
2023-10-08T09:18:10.991Z,96361.41
2023-10-08T09:20:45.665Z,96365.75
2023-10-08T09:23:15.112Z,96374.81
2023-10-08T09:25:44.026Z,96324.84
2023-10-08T09:28:14.753Z,96372.34
2023-10-08T09:30:43.244Z,96367.06
2023-10-08T09:33:13.617Z,96275.72
2023-10-08T09:35:41.351Z,96378.66
2023-10-08T09:38:13.073Z,96377.41
2023-10-08T09:40:43.313Z,96377.66
2023-10-08T09:43:12.093Z,96338.13
2023-10-08T09:45:48.745Z,96377.59
2023-10-08T09:48:21.028Z,96341.00
2023-10-08T09:50:49.630Z,96382.00
2023-10-08T09:53:21.359Z,96381.75
2023-10-08T09:55:55.630Z,96397.56
2023-10-08T09:58:30.665Z,96394.66
2023-10-08T10:00:59.154Z,96364.25
2023-10-08T10:03:29.119Z,96409.69
2023-10-08T10:06:02.759Z,96408.69
2023-10-08T10:08:37.516Z,96412.41
2023-10-08T10:11:05.761Z,96323.25
2023-10-08T10:13:43.065Z,96406.97
2023-10-08T10:16:14.975Z,96399.75
2023-10-08T10:18:48.548Z,96421.13
2023-10-08T10:21:45.044Z,96399.78
2023-10-08T10:24:38.573Z,96406.34
2023-10-08T10:27:15.866Z,96402.31
2023-10-08T10:29:44.678Z,96362.75
2023-10-08T10:32:16.590Z,96413.84
2023-10-08T10:34:45.429Z,96423.56
2023-10-08T10:37:23.926Z,96422.72
2023-10-08T10:40:01.427Z,96357.44
2023-10-08T10:42:42.025Z,96421.00
2023-10-08T10:45:36.063Z,96317.78
2023-10-08T10:48:23.458Z,96428.28
2023-10-08T10:51:07.923Z,96426.25
2023-10-08T10:54:08.297Z,96428.63
2023-10-08T10:56:44.204Z,96387.44
2023-10-08T10:59:20.153Z,96447.59
2023-10-08T11:01:54.099Z,96421.38
2023-10-08T11:04:23.592Z,96446.56
2023-10-08T11:06:57.992Z,96437.09
2023-10-08T11:09:39.922Z,96447.13
2023-10-08T11:12:13.160Z,96428.94
2023-10-08T11:14:44.353Z,96448.91
2023-10-08T11:17:16.788Z,96465.91
2023-10-08T11:19:49.942Z,96451.25
2023-10-08T11:22:17.804Z,96445.47
2023-10-08T11:24:48.979Z,96457.97
2023-10-08T11:27:30.291Z,96415.34
2023-10-08T11:29:59.422Z,96451.56
2023-10-08T11:32:28.178Z,96448.56
2023-10-08T11:35:16.573Z,96414.13
2023-10-08T11:37:52.985Z,96449.09
2023-10-08T11:40:30.390Z,96457.72
2023-10-08T11:43:00.546Z,96446.38
2023-10-08T11:45:29.159Z,96451.28
2023-10-08T11:48:04.870Z,96443.28
2023-10-08T11:50:32.571Z,96432.31
2023-10-08T11:53:04.697Z,96444.03
2023-10-08T11:55:43.971Z,96404.53
2023-10-08T11:58:11.833Z,96457.38
2023-10-08T12:00:48.283Z,96392.94
2023-10-08T12:03:20.676Z,96449.25
2023-10-08T12:05:51.076Z,96444.13
2023-10-08T12:08:24.008Z,96444.72
2023-10-08T12:10:56.262Z,96445.31
2023-10-08T12:13:26.618Z,96448.66
2023-10-08T12:16:07.770Z,96425.41
2023-10-08T12:18:42.164Z,96453.91
2023-10-08T12:21:12.432Z,96455.22
2023-10-08T12:23:42.299Z,96464.28
2023-10-08T12:26:10.122Z,96366.47
2023-10-08T12:28:37.974Z,96460.00
2023-10-08T12:31:05.369Z,96456.53
2023-10-08T12:33:33.219Z,96452.00
2023-10-08T12:36:12.530Z,96397.25
2023-10-08T12:38:45.282Z,96448.06
2023-10-08T12:41:15.998Z,96447.34
2023-10-08T12:43:47.071Z,96437.53
2023-10-08T12:46:25.842Z,96395.59
2023-10-08T12:48:56.567Z,96448.06
2023-10-08T12:51:26.827Z,96391.88
2023-10-08T12:54:21.857Z,96431.13
2023-10-08T12:56:50.544Z,96442.56
2023-10-08T12:59:25.723Z,96450.44
2023-10-08T13:01:56.376Z,96447.59
2023-10-08T13:04:29.564Z,96452.72
2023-10-08T13:07:03.095Z,96453.78
2023-10-08T13:09:38.358Z,96467.63
2023-10-08T13:12:06.724Z,96395.97
2023-10-08T13:14:36.831Z,96450.13
2023-10-08T13:17:04.860Z,96456.09
2023-10-08T13:19:35.581Z,96455.75
2023-10-08T13:22:08.119Z,96462.88
2023-10-08T13:24:37.169Z,96453.19
2023-10-08T13:27:08.204Z,96448.41
2023-10-08T13:29:36.163Z,96449.31
2023-10-08T13:32:05.805Z,96457.84
2023-10-08T13:34:33.348Z,96457.72
2023-10-08T13:37:00.653Z,96448.94
2023-10-08T13:39:29.104Z,96450.34
2023-10-08T13:41:58.505Z,96457.31
2023-10-08T13:44:31.256Z,96454.19
2023-10-08T13:47:01.629Z,96457.13
2023-10-08T13:49:30.989Z,96446.28
2023-10-08T13:51:59.790Z,96455.72
2023-10-08T13:54:31.212Z,96457.00
2023-10-08T13:57:00.742Z,96449.78
2023-10-08T13:59:33.714Z,96398.78
2023-10-08T14:02:03.988Z,96469.28
2023-10-08T14:04:32.290Z,96454.13
2023-10-08T14:07:00.406Z,96459.53
2023-10-08T14:09:38.448Z,96455.16
2023-10-08T14:12:09.148Z,96444.50
2023-10-08T14:14:37.113Z,96450.56
2023-10-08T14:17:07.168Z,96438.31
2023-10-08T14:19:48.096Z,96428.59
2023-10-08T14:22:16.390Z,96452.94
2023-10-08T14:24:47.627Z,96399.22
2023-10-08T14:27:19.921Z,96450.25
2023-10-08T14:29:53.441Z,96407.69
2023-10-08T14:32:21.579Z,96398.28
2023-10-08T14:35:07.756Z,96439.16
2023-10-08T14:37:53.987Z,96391.03
2023-10-08T14:40:40.058Z,96417.41
2023-10-08T14:43:07.642Z,96411.44
2023-10-08T14:45:37.440Z,96458.50
2023-10-08T14:48:13.294Z,96393.66
2023-10-08T14:50:43.930Z,96455.25
2023-10-08T14:53:11.597Z,96348.38
2023-10-08T14:55:39.523Z,96458.50
2023-10-08T14:58:13.871Z,96386.84
2023-10-08T15:00:43.549Z,96458.19
2023-10-08T15:03:13.298Z,96402.63
2023-10-08T15:05:41.598Z,96463.63
2023-10-08T15:08:12.164Z,96459.22
2023-10-08T15:10:40.695Z,96396.03
2023-10-08T15:13:09.239Z,96392.34
2023-10-08T15:15:37.030Z,96453.34
2023-10-08T15:18:07.690Z,96472.91
2023-10-08T15:20:36.446Z,96412.03
2023-10-08T15:23:06.135Z,96470.28
2023-10-08T15:25:33.860Z,96394.16
2023-10-08T15:28:02.727Z,96468.34
2023-10-08T15:30:30.679Z,96458.81
2023-10-08T15:32:58.844Z,96465.19
2023-10-08T15:35:26.431Z,96413.81
2023-10-08T15:37:55.908Z,96476.31
2023-10-08T15:40:24.500Z,96464.22
2023-10-08T15:42:55.173Z,96463.69
2023-10-08T15:45:24.647Z,96454.19
2023-10-08T15:47:53.390Z,96473.91
2023-10-08T15:50:22.479Z,96378.31
2023-10-08T15:52:51.211Z,96468.59
2023-10-08T15:55:24.251Z,96468.69
2023-10-08T15:57:53.015Z,96440.44
2023-10-08T16:00:21.626Z,96472.47
2023-10-08T16:02:49.707Z,96374.09
2023-10-08T16:05:18.588Z,96476.19
2023-10-08T16:07:47.293Z,96470.88
2023-10-08T16:10:14.961Z,96483.00
2023-10-08T16:12:42.552Z,96480.38
2023-10-08T16:15:10.536Z,96372.97
2023-10-08T16:17:40.463Z,96482.78
2023-10-08T16:20:16.126Z,96488.56
2023-10-08T16:22:46.883Z,96479.81
2023-10-08T16:25:18.454Z,96483.34
2023-10-08T16:27:50.018Z,96486.06
2023-10-08T16:30:25.026Z,96486.91
2023-10-08T16:32:57.092Z,96492.75
2023-10-08T16:35:25.850Z,96396.59
2023-10-08T16:37:55.434Z,96493.41
2023-10-08T16:40:23.250Z,96494.97
2023-10-08T16:42:50.983Z,96491.69
2023-10-08T16:45:19.066Z,96453.59
2023-10-08T16:47:52.181Z,96505.53
2023-10-08T16:50:21.644Z,96508.44
2023-10-08T16:52:49.902Z,96510.44
2023-10-08T16:55:18.089Z,96510.72
2023-10-08T16:57:47.009Z,96508.22
2023-10-08T17:00:14.942Z,96514.19
2023-10-08T17:02:43.422Z,96511.28
2023-10-08T17:05:17.057Z,96505.31
2023-10-08T17:07:46.839Z,96454.56
2023-10-08T17:10:15.875Z,96517.44
2023-10-08T17:12:44.350Z,96510.94
2023-10-08T17:15:14.814Z,96507.16
2023-10-08T17:17:43.304Z,96508.03
2023-10-08T17:20:11.835Z,96513.97
2023-10-08T17:22:40.279Z,96510.66
2023-10-08T17:25:08.596Z,96515.88
2023-10-08T17:27:36.681Z,96515.13
2023-10-08T17:30:08.238Z,96510.19
2023-10-08T17:32:37.203Z,96518.78
2023-10-08T17:35:10.633Z,96525.34
2023-10-08T17:37:41.282Z,96529.09
2023-10-08T17:40:09.481Z,96526.66
2023-10-08T17:42:37.128Z,96532.84
2023-10-08T17:45:05.615Z,96503.22
2023-10-08T17:47:33.706Z,96529.28
2023-10-08T17:50:01.986Z,96537.78
2023-10-08T17:52:31.675Z,96536.94
2023-10-08T17:54:59.919Z,96540.19
2023-10-08T17:57:28.082Z,96534.13
2023-10-08T17:59:55.742Z,96541.41
2023-10-08T18:02:23.222Z,96547.75
2023-10-08T18:04:50.919Z,96547.69
2023-10-08T18:07:18.402Z,96545.34
2023-10-08T18:09:45.838Z,96551.22
2023-10-08T18:12:13.402Z,96544.22
2023-10-08T18:14:41.293Z,96549.47
2023-10-08T18:17:09.105Z,96552.91
2023-10-08T18:19:37.851Z,96550.91
2023-10-08T18:22:05.916Z,96553.53
2023-10-08T18:24:34.101Z,96556.44
2023-10-08T18:27:02.106Z,96560.00
2023-10-08T18:29:29.925Z,96561.97
2023-10-08T18:31:58.343Z,96563.63
2023-10-08T18:34:25.900Z,96558.06
2023-10-08T18:36:53.599Z,96524.13
2023-10-08T18:39:21.180Z,96572.78
2023-10-08T18:41:49.056Z,96464.84
2023-10-08T18:44:18.076Z,96503.84
2023-10-08T18:46:46.504Z,96540.81
2023-10-08T18:49:18.802Z,96569.94
2023-10-08T18:51:46.947Z,96569.09
2023-10-08T18:54:15.332Z,96578.31
2023-10-08T18:56:43.515Z,96539.38
2023-10-08T18:59:13.259Z,96569.97
2023-10-08T19:01:45.496Z,96578.00
2023-10-08T19:04:15.265Z,96531.69
2023-10-08T19:06:44.705Z,96526.66
2023-10-08T19:09:14.015Z,96590.53
2023-10-08T19:11:42.255Z,96589.81
2023-10-08T19:14:09.943Z,96576.69
2023-10-08T19:16:38.292Z,96601.91
2023-10-08T19:19:09.541Z,96597.31
2023-10-08T19:21:39.148Z,96600.69
2023-10-08T19:24:08.802Z,96601.53
2023-10-08T19:26:36.968Z,96597.25
2023-10-08T19:29:05.079Z,96604.97
2023-10-08T19:31:32.841Z,96603.09
2023-10-08T19:34:01.557Z,96609.16
2023-10-08T19:36:31.886Z,96614.50
2023-10-08T19:38:59.595Z,96617.19
2023-10-08T19:41:27.840Z,96431.81
2023-10-08T19:43:55.363Z,96591.19
2023-10-08T19:46:24.828Z,96618.34
2023-10-08T19:48:54.108Z,96621.59
2023-10-08T19:51:23.978Z,96640.06
2023-10-08T19:53:56.468Z,96630.72
2023-10-08T19:56:24.656Z,96632.50
2023-10-08T19:58:58.405Z,96614.06
2023-10-08T20:01:26.965Z,96611.25
2023-10-08T20:03:55.772Z,96640.13
2023-10-08T20:06:29.091Z,96624.66
2023-10-08T20:08:56.754Z,96621.31
2023-10-08T20:11:25.399Z,96640.69
2023-10-08T20:13:54.232Z,96628.31
2023-10-08T20:16:21.924Z,96609.50
2023-10-08T20:18:54.896Z,96643.41
2023-10-08T20:21:23.256Z,96647.63
2023-10-08T20:23:52.115Z,96657.31
2023-10-08T20:26:22.641Z,96660.88
2023-10-08T20:28:55.268Z,96659.09
2023-10-08T20:31:22.731Z,96552.22
2023-10-08T20:33:50.357Z,96674.75
2023-10-08T20:36:19.063Z,96673.06
2023-10-08T20:38:48.325Z,96675.22
2023-10-08T20:41:23.560Z,96677.09
2023-10-08T20:43:51.851Z,96684.91
2023-10-08T20:46:20.706Z,96675.44
2023-10-08T20:48:49.880Z,96675.97
2023-10-08T20:51:19.511Z,96693.84
2023-10-08T20:53:48.710Z,96695.84
2023-10-08T20:56:17.474Z,96705.06
2023-10-08T20:58:45.245Z,96704.97
2023-10-08T21:01:15.714Z,96699.47
2023-10-08T21:03:43.425Z,96655.38
2023-10-08T21:06:11.208Z,96595.91
2023-10-08T21:08:39.026Z,96716.81
2023-10-08T21:11:09.216Z,96655.84
2023-10-08T21:13:36.705Z,96725.69
2023-10-08T21:16:04.888Z,96724.28
2023-10-08T21:18:33.137Z,96674.94
2023-10-08T21:21:05.015Z,96694.72
2023-10-08T21:23:34.625Z,96692.19
2023-10-08T21:26:02.367Z,96734.06
2023-10-08T21:28:30.441Z,96683.59
2023-10-08T21:30:58.018Z,96737.53
2023-10-08T21:33:27.199Z,96691.53
2023-10-08T21:35:55.327Z,96748.53
2023-10-08T21:38:25.086Z,96747.78
2023-10-08T21:41:02.629Z,96754.78
2023-10-08T21:43:30.291Z,96697.97
2023-10-08T21:45:57.930Z,96756.72
2023-10-08T21:48:27.079Z,96762.69
2023-10-08T21:50:55.533Z,96764.34
2023-10-08T21:53:23.082Z,96765.38
2023-10-08T21:55:50.611Z,96728.25
2023-10-08T21:58:19.661Z,96777.59
2023-10-08T22:00:47.972Z,96780.03
2023-10-08T22:03:16.762Z,96784.22
2023-10-08T22:05:45.893Z,96778.16
2023-10-08T22:08:14.760Z,96784.91
2023-10-08T22:10:44.157Z,96788.44
2023-10-08T22:13:11.700Z,96735.78
2023-10-08T22:15:51.691Z,96797.19
2023-10-08T22:18:33.852Z,96798.16
2023-10-08T22:21:08.297Z,96805.13
2023-10-08T22:23:40.976Z,96809.63
2023-10-08T22:26:12.421Z,96813.97
2023-10-08T22:28:44.597Z,96809.50
2023-10-08T22:31:16.170Z,96814.09
2023-10-08T22:33:49.977Z,96820.06
2023-10-08T22:36:20.615Z,96830.56
2023-10-08T22:38:51.817Z,96770.28
2023-10-08T22:41:24.452Z,96831.41
2023-10-08T22:43:55.590Z,96836.63
2023-10-08T22:46:26.521Z,96840.09
2023-10-08T22:49:05.091Z,96837.47
2023-10-08T22:51:38.108Z,96846.16
2023-10-08T22:54:09.535Z,96780.53
2023-10-08T22:56:37.694Z,96851.38
2023-10-08T22:59:09.028Z,96860.97
2023-10-08T23:01:39.974Z,96858.34
2023-10-08T23:04:10.416Z,96866.88
2023-10-08T23:06:41.681Z,96762.94
2023-10-08T23:09:26.228Z,96871.06
2023-10-08T23:11:56.190Z,96876.31
2023-10-08T23:14:25.556Z,96875.16
2023-10-08T23:16:53.166Z,96868.09
2023-10-08T23:19:22.616Z,96869.78
2023-10-08T23:21:53.461Z,96879.50
2023-10-08T23:24:21.594Z,96882.28
2023-10-08T23:26:49.250Z,96887.66
2023-10-08T23:29:17.041Z,96882.72
2023-10-08T23:31:44.619Z,96806.13
2023-10-08T23:34:12.522Z,96892.81
2023-10-08T23:36:43.143Z,96884.31
2023-10-08T23:39:14.001Z,96903.31
2023-10-08T23:41:53.513Z,96894.84
2023-10-08T23:44:28.747Z,96892.41
2023-10-08T23:47:08.867Z,96896.69
2023-10-08T23:50:10.901Z,96907.97
2023-10-08T23:52:38.186Z,96922.72
2023-10-08T23:55:07.223Z,96912.28
2023-10-08T23:57:53.255Z,96916.75
